createdAt,value
2018-12-18T11:20:50.355Z,0.353
2018-12-18T11:22:50.628Z,0.268
2018-12-18T11:24:49.784Z,0.268
2018-12-18T11:26:50.116Z,0.268
2018-12-18T11:28:50.261Z,0.125
2018-12-18T11:30:50.408Z,0.234
2018-12-18T11:32:50.674Z,0.234
2018-12-18T11:40:50.511Z,0.348
2018-12-18T11:42:50.621Z,0.348
2018-12-18T11:44:49.815Z,0.188
2018-12-18T11:46:50.142Z,0.188
2018-12-18T11:48:50.258Z,0.188
2018-12-18T11:54:50.460Z,0.125
2018-12-18T11:56:49.796Z,0.120
2018-12-18T11:58:49.964Z,0.245
2018-12-18T12:00:50.071Z,0.131
2018-12-18T12:02:50.198Z,0.131
2018-12-18T12:04:49.787Z,0.217
2018-12-18T12:06:50.101Z,0.200
2018-12-18T12:08:50.275Z,0.114
2018-12-18T12:10:50.420Z,0.148
2018-12-18T12:12:50.575Z,0.234
2018-12-18T12:14:50.752Z,0.234
2018-12-18T12:16:50.112Z,0.234
2018-12-18T12:18:50.289Z,0.217
2018-12-18T12:20:50.423Z,0.154
2018-12-18T12:22:50.484Z,0.388
2018-12-18T12:24:50.602Z,0.587
2018-12-18T12:26:49.896Z,0.587
2018-12-18T13:16:49.943Z,0.217
2018-12-18T13:18:50.140Z,0.165
2018-12-18T13:20:50.314Z,0.211
2018-12-18T13:22:50.606Z,0.137
2018-12-18T13:24:50.753Z,0.137
2018-12-18T13:26:50.347Z,0.194
2018-12-18T13:28:50.511Z,0.222
2018-12-18T13:30:50.598Z,0.120
2018-12-18T13:32:49.781Z,0.182
2018-12-18T13:34:50.425Z,0.245
2018-12-18T13:36:49.872Z,0.422
2018-12-18T13:38:50.036Z,0.422
2018-12-18T13:40:50.244Z,0.427
2018-12-18T13:42:50.389Z,0.427
